Time;durP1;ratioP1;P1;durP2;ratioP2;P2;SDS_P1;SDS_P2;PMS_P1;PMS_P2;Temp;Humidity;BMP_temperature;BMP_pressure;BME280_temperature;BME280_humidity;BME280_pressure;Samples;Min_cycle;Max_cycle;Signal;HPM_P1;HPM_P2
2023/09/14 00:00:16;;;;;;;8.27;5.55;;;;;;;;;;5000534;28;20053;-71
2023/09/14 00:02:42;;;;;;;8.15;5.75;;;;;;;;;;4999417;28;20045;-71
2023/09/14 00:05:08;;;;;;;6.82;4.88;;;;;;;;;;5001793;28;20042;-71
2023/09/14 00:07:34;;;;;;;8.63;5.20;;;;;;;;;;4999823;28;20041;-70
2023/09/14 00:09:59;;;;;;;9.90;4.93;;;;;;;;;;5001255;28;20119;-71
2023/09/14 00:12:24;;;;;;;7.10;4.93;;;;;;;;;;5000163;28;20069;-70
2023/09/14 00:14:50;;;;;;;17.58;4.85;;;;;;;;;;5000971;28;20156;-70
2023/09/14 00:17:15;;;;;;;8.40;4.70;;;;;;;;;;4999832;28;20041;-70
2023/09/14 00:19:41;;;;;;;6.07;4.57;;;;;;;;;;5000756;28;20053;-70
2023/09/14 00:22:06;;;;;;;6.30;4.43;;;;;;;;;;5000588;28;20775;-70
2023/09/14 00:24:32;;;;;;;6.47;5.18;;;;;;;;;;4999052;28;20129;-71
2023/09/14 00:26:57;;;;;;;5.95;4.88;;;;;;;;;;5000630;28;20554;-70
2023/09/14 00:29:22;;;;;;;6.10;4.90;;;;;;;;;;4997936;28;20121;-71
2023/09/14 00:31:48;;;;;;;7.10;4.72;;;;;;;;;;5000576;28;20071;-70
2023/09/14 00:34:13;;;;;;;5.75;4.88;;;;;;;;;;4998834;28;20049;-71
2023/09/14 00:36:38;;;;;;;7.30;5.00;;;;;;;;;;5000070;28;20046;-70
2023/09/14 00:39:08;;;;;;;8.25;5.00;;;;;;;;;;4999207;28;20052;-72
2023/09/14 00:41:33;;;;;;;6.78;4.88;;;;;;;;;;4997686;28;20055;-71
2023/09/14 00:43:59;;;;;;;6.10;4.40;;;;;;;;;;5000407;28;20581;-71
2023/09/14 00:46:24;;;;;;;8.07;5.30;;;;;;;;;;4999702;28;20560;-71
2023/09/14 00:48:50;;;;;;;7.57;5.38;;;;;;;;;;4999094;28;20407;-71
2023/09/14 00:51:15;;;;;;;8.95;5.63;;;;;;;;;;4999388;28;20069;-71
2023/09/14 00:53:41;;;;;;;7.15;5.53;;;;;;;;;;5015111;28;20038;-71
2023/09/14 00:56:06;;;;;;;8.40;5.57;;;;;;;;;;4997797;28;20085;-70
2023/09/14 00:58:32;;;;;;;6.63;5.30;;;;;;;;;;4998088;28;20081;-70
2023/09/14 01:00:59;;;;;;;5.53;4.82;;;;;;;;;;4998754;28;20046;-71
2023/09/14 01:03:25;;;;;;;9.20;4.80;;;;;;;;;;4999222;28;20053;-71
2023/09/14 01:05:51;;;;;;;9.88;5.10;;;;;;;;;;4998007;28;20042;-71
2023/09/14 01:08:17;;;;;;;7.65;5.38;;;;;;;;;;4998545;28;20052;-70
2023/09/14 01:10:42;;;;;;;9.95;5.72;;;;;;;;;;4998303;28;20121;-70
2023/09/14 01:13:27;;;;;;;7.93;5.60;;;;;;;;;;4998649;28;20038;-71
2023/09/14 01:16:04;;;;;;;9.07;4.75;;;;;;;;;;4967929;28;20069;-70
2023/09/14 01:18:40;;;;;;;6.78;5.72;;;;;;;;;;5013840;28;20053;-70
2023/09/14 01:21:29;;;;;;;7.68;5.93;;;;;;;;;;4997138;28;20665;-71
2023/09/14 01:24:07;;;;;;;9.88;5.78;;;;;;;;;;4980675;28;20041;-71
2023/09/14 01:26:33;;;;;;;10.13;6.20;;;;;;;;;;5012229;28;20355;-71
2023/09/14 01:29:00;;;;;;;11.38;6.05;;;;;;;;;;4998323;28;20046;-71
2023/09/14 01:31:26;;;;;;;8.32;6.05;;;;;;;;;;4994836;28;20058;-71
2023/09/14 01:33:51;;;;;;;7.60;5.85;;;;;;;;;;5014690;28;20042;-70
2023/09/14 01:36:23;;;;;;;8.80;6.65;;;;;;;;;;4997604;28;20038;-72
2023/09/14 01:38:51;;;;;;;9.75;5.82;;;;;;;;;;4998136;28;20038;-71
2023/09/14 01:41:18;;;;;;;8.90;5.35;;;;;;;;;;5013290;28;20474;-71
2023/09/14 01:43:45;;;;;;;8.13;6.03;;;;;;;;;;4980957;28;20570;-71
2023/09/14 01:46:11;;;;;;;7.68;5.80;;;;;;;;;;4998163;28;20037;-70
2023/09/14 01:48:37;;;;;;;7.97;6.25;;;;;;;;;;4997147;28;20045;-71
2023/09/14 01:51:02;;;;;;;7.78;6.03;;;;;;;;;;4997702;28;20037;-71
2023/09/14 01:53:28;;;;;;;10.85;5.95;;;;;;;;;;4996999;28;20586;-71
2023/09/14 01:55:53;;;;;;;7.13;5.38;;;;;;;;;;5014055;28;20056;-71
2023/09/14 01:58:18;;;;;;;8.90;5.20;;;;;;;;;;4997043;28;20498;-72
2023/09/14 02:00:44;;;;;;;7.80;5.38;;;;;;;;;;5013987;28;20034;-71
2023/09/14 02:03:10;;;;;;;9.10;5.90;;;;;;;;;;4997521;28;20150;-71
2023/09/14 02:05:35;;;;;;;6.72;5.32;;;;;;;;;;4995482;28;20061;-72
2023/09/14 02:08:01;;;;;;;8.30;5.20;;;;;;;;;;4997558;28;20042;-71
2023/09/14 02:10:26;;;;;;;9.07;5.95;;;;;;;;;;4996987;28;20052;-70
2023/09/14 02:12:51;;;;;;;7.43;5.68;;;;;;;;;;5013147;28;20077;-73
2023/09/14 02:15:18;;;;;;;10.48;6.03;;;;;;;;;;4996068;28;20046;-73
2023/09/14 02:17:43;;;;;;;7.90;5.93;;;;;;;;;;4996202;28;20049;-72
2023/09/14 02:20:10;;;;;;;9.20;6.50;;;;;;;;;;4997542;28;20050;-73
2023/09/14 02:22:36;;;;;;;11.15;6.22;;;;;;;;;;4996945;28;20491;-72
2023/09/14 02:25:02;;;;;;;8.35;6.03;;;;;;;;;;5013576;28;20049;-70
2023/09/14 02:27:27;;;;;;;9.02;5.90;;;;;;;;;;4996666;28;20053;-70
2023/09/14 02:29:56;;;;;;;11.10;6.30;;;;;;;;;;4998793;28;20411;-70
2023/09/14 02:32:23;;;;;;;8.57;6.07;;;;;;;;;;4996719;28;20042;-70
2023/09/14 02:34:49;;;;;;;8.77;6.55;;;;;;;;;;4996937;28;20406;-71
2023/09/14 02:37:15;;;;;;;8.52;5.90;;;;;;;;;;4996972;28;20601;-71
2023/09/14 02:39:40;;;;;;;9.20;6.20;;;;;;;;;;5012752;28;20046;-70
2023/09/14 02:42:06;;;;;;;10.00;6.50;;;;;;;;;;4997127;28;20112;-71
2023/09/14 02:44:32;;;;;;;9.02;6.32;;;;;;;;;;4996343;28;20052;-71
2023/09/14 02:46:57;;;;;;;11.23;5.82;;;;;;;;;;5012952;28;20111;-70
2023/09/14 02:49:22;;;;;;;8.65;6.20;;;;;;;;;;4995316;28;20084;-71
2023/09/14 02:51:48;;;;;;;10.95;6.88;;;;;;;;;;4998030;28;20841;-70
2023/09/14 02:54:13;;;;;;;10.88;6.30;;;;;;;;;;4996803;28;20499;-72
2023/09/14 02:56:40;;;;;;;9.30;6.50;;;;;;;;;;4997310;28;20042;-71
2023/09/14 02:59:06;;;;;;;10.63;6.32;;;;;;;;;;4996658;28;20056;-71
2023/09/14 03:01:32;;;;;;;11.18;6.70;;;;;;;;;;5011335;28;20046;-71
2023/09/14 03:03:58;;;;;;;10.50;6.57;;;;;;;;;;5013175;28;20104;-71
2023/09/14 03:06:25;;;;;;;11.38;7.05;;;;;;;;;;4996118;28;20042;-71
2023/09/14 03:08:50;;;;;;;11.88;7.65;;;;;;;;;;4996341;28;20057;-71
2023/09/14 03:11:16;;;;;;;11.05;7.72;;;;;;;;;;4994763;28;20068;-71
2023/09/14 03:13:41;;;;;;;12.70;7.88;;;;;;;;;;4997556;28;20050;-71
2023/09/14 03:16:07;;;;;;;12.85;7.82;;;;;;;;;;4996162;28;20034;-71
2023/09/14 03:18:33;;;;;;;12.70;8.00;;;;;;;;;;4997490;28;20045;-71
2023/09/14 03:20:58;;;;;;;13.43;8.15;;;;;;;;;;4996211;28;20052;-72
2023/09/14 03:23:24;;;;;;;14.60;9.05;;;;;;;;;;4994864;28;20034;-71
2023/09/14 03:25:51;;;;;;;12.88;9.15;;;;;;;;;;5012344;28;20573;-71
2023/09/14 03:28:18;;;;;;;15.88;9.70;;;;;;;;;;4996001;28;20033;-71
2023/09/14 03:30:45;;;;;;;12.90;7.90;;;;;;;;;;4979704;28;20048;-71
2023/09/14 03:33:11;;;;;;;15.60;8.60;;;;;;;;;;4996179;28;20041;-71
2023/09/14 03:35:37;;;;;;;13.20;8.48;;;;;;;;;;4994521;28;20052;-71
2023/09/14 03:38:03;;;;;;;15.85;8.40;;;;;;;;;;5012771;28;20670;-71
2023/09/14 03:40:29;;;;;;;13.77;8.43;;;;;;;;;;4995626;28;20050;-71
2023/09/14 03:42:54;;;;;;;13.98;8.18;;;;;;;;;;4996515;28;20513;-73
2023/09/14 03:45:20;;;;;;;13.70;8.32;;;;;;;;;;4994407;28;20118;-72
2023/09/14 03:47:46;;;;;;;13.20;8.90;;;;;;;;;;4991542;28;20122;-70
2023/09/14 03:50:11;;;;;;;16.73;9.38;;;;;;;;;;4996094;28;20038;-72
2023/09/14 03:52:37;;;;;;;11.52;7.90;;;;;;;;;;4995222;28;20050;-73
2023/09/14 03:55:03;;;;;;;15.32;9.32;;;;;;;;;;5011158;28;20176;-73
2023/09/14 03:57:30;;;;;;;16.25;9.45;;;;;;;;;;4994832;28;20041;-73
2023/09/14 03:59:56;;;;;;;13.77;9.45;;;;;;;;;;5012486;28;20574;-72
2023/09/14 04:02:23;;;;;;;15.95;9.73;;;;;;;;;;5012004;28;20066;-73
2023/09/14 04:04:49;;;;;;;16.90;10.45;;;;;;;;;;4994939;28;20506;-73
2023/09/14 04:07:15;;;;;;;15.98;9.70;;;;;;;;;;4995501;28;20042;-73
2023/09/14 04:09:41;;;;;;;17.90;10.02;;;;;;;;;;5011776;28;20157;-73
2023/09/14 04:12:07;;;;;;;14.43;9.85;;;;;;;;;;5011803;28;20072;-70
2023/09/14 04:14:33;;;;;;;18.83;10.15;;;;;;;;;;4994919;28;20514;-71
2023/09/14 04:17:00;;;;;;;18.38;9.45;;;;;;;;;;5011195;28;20152;-71
2023/09/14 04:19:28;;;;;;;15.27;9.55;;;;;;;;;;4994511;28;20052;-71
2023/09/14 04:21:53;;;;;;;16.48;9.82;;;;;;;;;;5010653;28;20038;-74
2023/09/14 04:24:19;;;;;;;16.50;9.93;;;;;;;;;;4995761;28;20546;-72
2023/09/14 04:26:45;;;;;;;14.88;9.63;;;;;;;;;;4977757;28;20038;-71
2023/09/14 04:29:14;;;;;;;18.95;10.65;;;;;;;;;;5012296;28;20053;-70
2023/09/14 04:31:43;;;;;;;17.25;10.85;;;;;;;;;;5002198;28;21025;-70
2023/09/14 04:34:09;;;;;;;19.08;10.25;;;;;;;;;;5012052;28;20057;-71
2023/09/14 04:36:37;;;;;;;19.42;11.13;;;;;;;;;;4995350;28;20046;-71
2023/09/14 04:39:06;;;;;;;17.92;10.73;;;;;;;;;;4998378;28;20045;-72
2023/09/14 04:41:31;;;;;;;20.65;11.20;;;;;;;;;;4997563;28;20045;-71
2023/09/14 04:43:57;;;;;;;20.98;11.98;;;;;;;;;;5015227;28;20053;-71
2023/09/14 04:46:23;;;;;;;20.55;11.35;;;;;;;;;;4998350;28;20065;-71
2023/09/14 04:48:49;;;;;;;18.52;11.02;;;;;;;;;;5015039;28;20064;-71
2023/09/14 04:51:14;;;;;;;18.48;11.13;;;;;;;;;;4997845;28;20431;-74
2023/09/14 04:53:41;;;;;;;21.17;11.75;;;;;;;;;;4999876;28;20141;-70
2023/09/14 04:56:07;;;;;;;21.40;11.68;;;;;;;;;;5001860;28;20217;-70
2023/09/14 04:58:34;;;;;;;20.38;11.93;;;;;;;;;;4999322;28;20063;-74
2023/09/14 05:01:00;;;;;;;18.77;12.00;;;;;;;;;;4999101;28;20052;-69
2023/09/14 05:03:26;;;;;;;23.20;12.13;;;;;;;;;;4999148;28;20048;-70
2023/09/14 05:05:53;;;;;;;17.73;11.18;;;;;;;;;;5015385;28;20065;-70
2023/09/14 05:08:19;;;;;;;24.77;11.95;;;;;;;;;;4999245;28;20050;-69
2023/09/14 05:10:48;;;;;;;22.45;12.73;;;;;;;;;;4998659;28;20100;-70
2023/09/14 05:13:14;;;;;;;22.08;11.73;;;;;;;;;;4999804;28;20131;-69
2023/09/14 05:15:39;;;;;;;20.23;11.82;;;;;;;;;;4997373;28;20714;-69
2023/09/14 05:18:05;;;;;;;22.23;12.13;;;;;;;;;;5014655;28;20046;-70
2023/09/14 05:20:30;;;;;;;23.17;12.35;;;;;;;;;;4998045;28;20046;-70
2023/09/14 05:22:56;;;;;;;18.55;12.23;;;;;;;;;;4997745;28;20060;-70
2023/09/14 05:25:25;;;;;;;23.85;13.43;;;;;;;;;;5013370;28;20552;-72
2023/09/14 05:27:51;;;;;;;24.38;12.07;;;;;;;;;;4997684;28;20053;-72
2023/09/14 05:30:21;;;;;;;22.88;12.27;;;;;;;;;;4998932;28;20112;-72
2023/09/14 05:32:47;;;;;;;22.10;12.65;;;;;;;;;;4997535;28;20069;-70
2023/09/14 05:35:13;;;;;;;21.15;12.38;;;;;;;;;;4996938;28;20144;-70
2023/09/14 05:37:38;;;;;;;22.73;12.13;;;;;;;;;;5013336;28;20049;-69
2023/09/14 05:40:11;;;;;;;19.45;12.43;;;;;;;;;;5014635;28;20383;-70
2023/09/14 05:42:40;;;;;;;25.90;12.65;;;;;;;;;;4996605;28;20042;-71
2023/09/14 05:45:07;;;;;;;22.05;12.35;;;;;;;;;;5014073;28;20545;-70
2023/09/14 05:47:33;;;;;;;22.30;12.63;;;;;;;;;;4994440;28;20192;-70
2023/09/14 05:49:58;;;;;;;23.80;12.27;;;;;;;;;;5013581;28;20633;-70
2023/09/14 05:52:24;;;;;;;22.35;12.07;;;;;;;;;;4998053;28;20077;-70
2023/09/14 05:54:50;;;;;;;19.95;12.30;;;;;;;;;;4998999;28;20052;-70
2023/09/14 05:57:16;;;;;;;23.48;12.85;;;;;;;;;;4996561;28;20088;-69
2023/09/14 05:59:42;;;;;;;20.98;12.90;;;;;;;;;;5014434;28;20509;-69
2023/09/14 06:02:08;;;;;;;21.27;12.82;;;;;;;;;;4998404;28;20041;-70
2023/09/14 06:04:34;;;;;;;20.67;12.55;;;;;;;;;;4998174;28;20099;-70
2023/09/14 06:06:59;;;;;;;21.85;12.98;;;;;;;;;;4997078;28;20138;-70
2023/09/14 06:09:26;;;;;;;24.02;13.27;;;;;;;;;;5013855;28;20049;-70
2023/09/14 06:11:52;;;;;;;23.83;13.80;;;;;;;;;;4997403;28;20046;-70
2023/09/14 06:14:18;;;;;;;21.23;13.50;;;;;;;;;;4998477;28;20129;-70
2023/09/14 06:16:43;;;;;;;26.83;13.90;;;;;;;;;;4998894;28;20140;-70
2023/09/14 06:19:09;;;;;;;19.25;12.55;;;;;;;;;;4999297;28;20123;-69
2023/09/14 06:21:34;;;;;;;22.80;13.77;;;;;;;;;;4998640;28;20042;-69
2023/09/14 06:24:00;;;;;;;24.75;14.23;;;;;;;;;;4998279;28;20050;-69
2023/09/14 06:26:30;;;;;;;20.02;12.70;;;;;;;;;;4998752;28;20149;-70
2023/09/14 06:28:55;;;;;;;19.85;12.93;;;;;;;;;;4998527;28;20060;-70
2023/09/14 06:31:22;;;;;;;20.98;12.60;;;;;;;;;;4998779;28;20046;-70
2023/09/14 06:33:51;;;;;;;21.48;13.07;;;;;;;;;;5000913;28;20084;-70
2023/09/14 06:36:18;;;;;;;19.20;13.10;;;;;;;;;;5001060;28;20526;-71
2023/09/14 06:38:48;;;;;;;23.65;14.32;;;;;;;;;;5000639;28;20056;-70
2023/09/14 06:41:16;;;;;;;23.08;14.20;;;;;;;;;;5000930;28;20421;-70
2023/09/14 06:43:44;;;;;;;20.85;13.45;;;;;;;;;;5000582;28;20075;-70
2023/09/14 06:46:10;;;;;;;20.60;13.30;;;;;;;;;;4999248;28;20037;-70
2023/09/14 06:48:35;;;;;;;22.63;13.68;;;;;;;;;;5014223;28;20056;-70
2023/09/14 06:51:01;;;;;;;20.33;13.63;;;;;;;;;;4999076;28;20041;-70
2023/09/14 06:53:26;;;;;;;19.90;13.90;;;;;;;;;;4997338;28;20061;-70
2023/09/14 06:55:52;;;;;;;27.80;14.13;;;;;;;;;;4998326;28;20084;-70
2023/09/14 06:58:17;;;;;;;21.25;13.27;;;;;;;;;;4999054;28;20436;-70
2023/09/14 07:00:43;;;;;;;24.80;14.88;;;;;;;;;;4998129;28;20235;-70
2023/09/14 07:03:08;;;;;;;19.70;13.18;;;;;;;;;;4998431;28;20042;-70
2023/09/14 07:05:35;;;;;;;21.27;14.75;;;;;;;;;;4998521;28;20395;-70
2023/09/14 07:08:00;;;;;;;19.40;13.35;;;;;;;;;;4998184;28;20092;-70
2023/09/14 07:10:26;;;;;;;23.58;14.38;;;;;;;;;;4999193;28;20088;-70
2023/09/14 07:12:51;;;;;;;19.75;13.13;;;;;;;;;;4997362;28;20050;-70
2023/09/14 07:15:17;;;;;;;17.80;13.63;;;;;;;;;;4998182;28;20592;-70
2023/09/14 07:17:43;;;;;;;22.33;14.35;;;;;;;;;;4997882;28;20065;-71
2023/09/14 07:20:09;;;;;;;19.85;13.75;;;;;;;;;;4998909;28;20042;-70
2023/09/14 07:22:35;;;;;;;22.27;14.25;;;;;;;;;;4998622;28;20045;-71
2023/09/14 07:25:01;;;;;;;22.67;14.38;;;;;;;;;;4997562;28;20046;-70
2023/09/14 07:27:27;;;;;;;20.67;13.75;;;;;;;;;;4997822;28;20636;-70
2023/09/14 07:29:52;;;;;;;21.90;15.00;;;;;;;;;;4998203;28;20042;-71
2023/09/14 07:32:18;;;;;;;22.00;14.35;;;;;;;;;;4998099;28;20046;-70
2023/09/14 07:34:44;;;;;;;23.55;13.88;;;;;;;;;;4997315;28;20308;-71
2023/09/14 07:37:09;;;;;;;19.40;14.43;;;;;;;;;;4998306;28;20772;-71
2023/09/14 07:39:35;;;;;;;21.05;13.07;;;;;;;;;;4997693;28;20107;-70
2023/09/14 07:42:00;;;;;;;17.48;11.80;;;;;;;;;;4997739;28;20073;-70
2023/09/14 07:44:26;;;;;;;17.20;12.25;;;;;;;;;;4998274;28;20077;-71
2023/09/14 07:46:51;;;;;;;16.83;12.45;;;;;;;;;;4996477;28;20100;-70
2023/09/14 07:49:16;;;;;;;16.27;11.73;;;;;;;;;;4995803;28;20038;-71
2023/09/14 07:51:42;;;;;;;18.10;11.77;;;;;;;;;;4997612;28;20137;-70
2023/09/14 07:54:07;;;;;;;14.23;11.13;;;;;;;;;;4998036;28;20653;-70
2023/09/14 07:56:33;;;;;;;13.82;11.02;;;;;;;;;;4997543;28;20070;-70
2023/09/14 07:58:58;;;;;;;16.63;10.13;;;;;;;;;;4997984;28;20411;-70
2023/09/14 08:01:24;;;;;;;15.55;11.02;;;;;;;;;;4997910;28;20681;-70
2023/09/14 08:03:49;;;;;;;15.30;10.57;;;;;;;;;;4997791;28;20074;-70
2023/09/14 08:06:18;;;;;;;12.30;10.38;;;;;;;;;;4995952;28;20038;-74
2023/09/14 08:08:44;;;;;;;12.50;10.00;;;;;;;;;;4996510;28;20053;-73
2023/09/14 08:11:10;;;;;;;13.80;10.27;;;;;;;;;;5000483;28;20042;-72
2023/09/14 08:13:35;;;;;;;14.93;10.23;;;;;;;;;;5000757;28;20129;-76
2023/09/14 08:16:04;;;;;;;14.05;10.70;;;;;;;;;;5000236;28;20100;-72
2023/09/14 08:18:30;;;;;;;13.63;9.70;;;;;;;;;;5000309;28;20057;-75
2023/09/14 08:20:55;;;;;;;13.52;10.65;;;;;;;;;;5015479;28;20415;-73
2023/09/14 08:23:20;;;;;;;13.07;9.48;;;;;;;;;;5015151;28;20060;-73
2023/09/14 08:25:47;;;;;;;13.15;9.25;;;;;;;;;;5000582;28;20054;-74
2023/09/14 08:28:14;;;;;;;14.43;10.85;;;;;;;;;;4999435;28;20489;-74
2023/09/14 08:30:41;;;;;;;13.13;10.63;;;;;;;;;;4999052;28;20052;-76
2023/09/14 08:33:07;;;;;;;11.80;9.75;;;;;;;;;;5000517;28;20042;-74
2023/09/14 08:35:34;;;;;;;11.75;9.52;;;;;;;;;;4998856;28;20087;-74
2023/09/14 08:38:02;;;;;;;12.07;9.18;;;;;;;;;;4999238;28;20084;-75
2023/09/14 08:40:29;;;;;;;12.88;9.95;;;;;;;;;;5000332;28;21759;-70
2023/09/14 08:42:54;;;;;;;11.77;8.48;;;;;;;;;;5000200;28;20041;-70
2023/09/14 08:45:31;;;;;;;12.30;9.45;;;;;;;;;;5000296;28;20092;-70
2023/09/14 08:47:59;;;;;;;15.00;10.52;;;;;;;;;;5000118;28;20847;-70
2023/09/14 08:50:26;;;;;;;12.75;9.40;;;;;;;;;;5000787;28;20073;-70
2023/09/14 08:52:52;;;;;;;14.35;8.73;;;;;;;;;;4999361;28;20108;-70
2023/09/14 08:55:20;;;;;;;10.50;8.55;;;;;;;;;;4999998;28;20458;-70
2023/09/14 08:57:46;;;;;;;12.35;8.77;;;;;;;;;;4999871;28;20080;-71
2023/09/14 09:00:17;;;;;;;11.50;8.57;;;;;;;;;;5000327;28;20050;-69
2023/09/14 09:02:48;;;;;;;9.95;7.93;;;;;;;;;;4999242;28;20441;-71
2023/09/14 09:05:15;;;;;;;11.60;8.68;;;;;;;;;;5000428;28;20100;-70
2023/09/14 09:07:42;;;;;;;14.90;9.02;;;;;;;;;;4999897;28;20553;-69
2023/09/14 09:10:26;;;;;;;11.73;9.85;;;;;;;;;;5000152;28;20070;-70
2023/09/14 09:12:56;;;;;;;11.70;8.82;;;;;;;;;;4999500;28;20053;-71
2023/09/14 09:15:26;;;;;;;12.35;9.73;;;;;;;;;;4997507;28;20137;-69
2023/09/14 09:17:55;;;;;;;14.50;8.70;;;;;;;;;;4999484;28;20061;-70
2023/09/14 09:20:25;;;;;;;11.85;8.80;;;;;;;;;;5000287;28;20045;-70
2023/09/14 09:22:51;;;;;;;10.80;8.82;;;;;;;;;;4998494;28;20096;-70
2023/09/14 09:25:18;;;;;;;11.90;8.25;;;;;;;;;;4998632;28;20037;-73
2023/09/14 09:27:44;;;;;;;9.32;7.75;;;;;;;;;;4999507;28;20045;-72
2023/09/14 09:30:10;;;;;;;11.50;8.00;;;;;;;;;;4999790;28;20044;-70
2023/09/14 09:32:42;;;;;;;9.18;7.93;;;;;;;;;;4998282;28;20108;-71
2023/09/14 09:35:20;;;;;;;;;;;;;;;;;;4998550;28;20589;-70
2023/09/14 09:37:47;;;;;;;13.63;8.85;;;;;;;;;;4993597;28;19972;-71
2023/09/14 09:40:14;;;;;;;15.27;9.27;;;;;;;;;;4987492;28;21132;-72
2023/09/14 09:42:40;;;;;;;11.73;9.65;;;;;;;;;;4988625;28;20618;-74
2023/09/14 09:45:07;;;;;;;9.73;8.48;;;;;;;;;;4979378;28;20046;-76
2023/09/14 09:47:33;;;;;;;10.40;9.30;;;;;;;;;;4977255;28;20113;-74
2023/09/14 09:49:59;;;;;;;10.38;9.05;;;;;;;;;;4979692;28;20050;-73
2023/09/14 09:52:26;;;;;;;11.38;9.43;;;;;;;;;;4994610;28;20134;-75
2023/09/14 09:54:51;;;;;;;10.45;8.60;;;;;;;;;;4979557;28;20125;-76
2023/09/14 09:57:19;;;;;;;10.35;9.10;;;;;;;;;;4994123;28;20052;-75
2023/09/14 09:59:48;;;;;;;11.40;9.55;;;;;;;;;;4994248;28;20050;-72
2023/09/14 10:02:15;;;;;;;10.00;8.18;;;;;;;;;;4980273;28;20046;-71
2023/09/14 10:04:52;;;;;;;10.23;8.40;;;;;;;;;;4979599;28;20042;-71
2023/09/14 10:07:22;;;;;;;10.93;9.38;;;;;;;;;;4979587;28;20125;-72
2023/09/14 10:09:54;;;;;;;12.77;8.32;;;;;;;;;;4978560;28;20581;-71
2023/09/14 10:12:26;;;;;;;;;;;;;;;;;;4980061;28;20410;-71
2023/09/14 10:14:54;;;;;;;12.25;8.32;;;;;;;;;;4981216;28;19925;-71
2023/09/14 10:17:23;;;;;;;10.68;8.23;;;;;;;;;;4978355;28;20042;-71
2023/09/14 10:19:50;;;;;;;10.35;8.25;;;;;;;;;;4979758;28;20077;-71
2023/09/14 10:22:17;;;;;;;11.32;7.88;;;;;;;;;;4980732;28;20618;-71
2023/09/14 10:24:43;;;;;;;12.75;7.93;;;;;;;;;;4980763;28;20050;-71
2023/09/14 10:27:09;;;;;;;8.48;7.10;;;;;;;;;;4978407;28;20108;-71
2023/09/14 10:29:40;;;;;;;10.02;8.00;;;;;;;;;;4979470;28;20046;-71
2023/09/14 10:32:08;;;;;;;;;;;;;;;;;;4978327;28;20089;-70
2023/09/14 10:34:34;;;;;;;9.45;7.07;;;;;;;;;;4979452;28;19921;-70
2023/09/14 10:37:02;;;;;;;8.25;5.90;;;;;;;;;;4978815;28;20053;-71
2023/09/14 10:39:28;;;;;;;7.25;6.45;;;;;;;;;;4993834;28;20216;-71
2023/09/14 10:41:54;;;;;;;10.05;7.32;;;;;;;;;;4978625;28;20133;-71
2023/09/14 10:44:19;;;;;;;7.53;6.20;;;;;;;;;;4978959;28;20046;-71
2023/09/14 10:46:47;;;;;;;7.03;6.22;;;;;;;;;;4979201;28;20112;-71
2023/09/14 10:49:14;;;;;;;9.23;6.88;;;;;;;;;;4979070;28;20050;-72
2023/09/14 10:51:41;;;;;;;7.93;6.30;;;;;;;;;;4977248;28;20092;-71
2023/09/14 10:54:06;;;;;;;11.05;7.30;;;;;;;;;;4977957;28;20646;-73
2023/09/14 10:56:33;;;;;;;8.60;6.22;;;;;;;;;;4979031;28;20093;-71
2023/09/14 10:59:08;;;;;;;6.95;5.60;;;;;;;;;;4978303;28;20553;-72
2023/09/14 11:01:45;;;;;;;6.80;5.53;;;;;;;;;;4978353;28;20085;-71
2023/09/14 11:04:15;;;;;;;8.68;6.25;;;;;;;;;;4977662;28;20042;-71
2023/09/14 11:06:48;;;;;;;7.80;6.07;;;;;;;;;;4978816;28;20111;-72
2023/09/14 11:09:15;;;;;;;11.27;7.30;;;;;;;;;;4978919;28;20803;-71
2023/09/14 11:11:45;;;;;;;9.05;7.10;;;;;;;;;;4978181;28;20050;-71
2023/09/14 11:14:13;;;;;;;10.60;7.20;;;;;;;;;;4977330;28;20064;-71
2023/09/14 11:16:53;;;;;;;8.88;6.53;;;;;;;;;;4978469;28;20510;-71
2023/09/14 11:19:31;;;;;;;10.43;7.03;;;;;;;;;;4977328;28;20042;-72
2023/09/14 11:22:13;;;;;;;13.57;7.50;;;;;;;;;;4959573;28;20053;-71
2023/09/14 11:24:38;;;;;;;9.65;6.63;;;;;;;;;;4978221;28;20054;-71
2023/09/14 11:27:04;;;;;;;8.57;6.32;;;;;;;;;;4977300;28;20042;-71
2023/09/14 11:29:32;;;;;;;8.25;6.53;;;;;;;;;;4992989;28;21052;-71
2023/09/14 11:32:04;;;;;;;9.68;6.47;;;;;;;;;;4977231;28;20054;-71
2023/09/14 11:34:31;;;;;;;7.50;5.65;;;;;;;;;;4977947;28;20042;-71
2023/09/14 11:37:00;;;;;;;6.80;5.53;;;;;;;;;;4972174;28;20038;-72
2023/09/14 11:39:26;;;;;;;10.75;6.15;;;;;;;;;;4975397;28;20306;-71
2023/09/14 11:41:54;;;;;;;8.30;6.57;;;;;;;;;;4975798;28;20050;-71
2023/09/14 11:44:21;;;;;;;9.20;7.03;;;;;;;;;;4976275;28;20050;-71
2023/09/14 11:46:48;;;;;;;10.45;6.85;;;;;;;;;;4978239;28;20913;-71
2023/09/14 11:49:20;;;;;;;9.63;6.47;;;;;;;;;;4979780;28;20042;-71
2023/09/14 11:51:46;;;;;;;;;;;;;;;;;;4979561;28;20104;-71
2023/09/14 11:54:12;;;;;;;6.80;5.55;;;;;;;;;;4979891;28;19925;-71
2023/09/14 11:56:37;;;;;;;6.03;4.85;;;;;;;;;;4980343;28;20060;-71
2023/09/14 11:59:04;;;;;;;6.32;5.10;;;;;;;;;;4978965;28;20069;-70
2023/09/14 12:01:35;;;;;;;5.47;4.18;;;;;;;;;;4979525;28;20046;-72
2023/09/14 12:04:04;;;;;;;5.47;4.60;;;;;;;;;;4980666;28;20089;-71
2023/09/14 12:06:30;;;;;;;6.68;4.30;;;;;;;;;;4979185;28;20048;-71
2023/09/14 12:08:56;;;;;;;6.95;4.40;;;;;;;;;;4979525;28;20062;-71
2023/09/14 12:11:24;;;;;;;4.43;3.67;;;;;;;;;;4976224;28;20050;-71
2023/09/14 12:13:53;;;;;;;5.68;3.97;;;;;;;;;;4980408;28;20058;-71
2023/09/14 12:16:24;;;;;;;4.47;4.00;;;;;;;;;;4978028;28;20092;-71
2023/09/14 12:18:50;;;;;;;4.10;3.70;;;;;;;;;;4995820;28;20099;-71
2023/09/14 12:21:18;;;;;;;5.63;4.70;;;;;;;;;;4979189;28;20050;-72
2023/09/14 12:23:46;;;;;;;6.93;5.10;;;;;;;;;;4979729;28;20054;-70
2023/09/14 12:26:17;;;;;;;7.15;4.90;;;;;;;;;;4979595;28;20499;-71
2023/09/14 12:28:47;;;;;;;8.17;5.53;;;;;;;;;;4980729;28;20992;-72
2023/09/14 12:31:14;;;;;;;10.98;5.18;;;;;;;;;;4978637;28;20308;-69
2023/09/14 12:33:40;;;;;;;6.45;4.63;;;;;;;;;;4978927;28;20062;-70
2023/09/14 12:36:08;;;;;;;10.60;5.90;;;;;;;;;;4979530;28;20054;-70
2023/09/14 12:38:34;;;;;;;5.13;4.60;;;;;;;;;;4980689;28;20046;-69
2023/09/14 12:40:59;;;;;;;9.85;5.22;;;;;;;;;;4980935;28;20066;-70
2023/09/14 12:43:26;;;;;;;6.95;5.60;;;;;;;;;;4978685;28;20042;-70
2023/09/14 12:45:51;;;;;;;6.68;5.78;;;;;;;;;;4980144;28;20058;-70
2023/09/14 12:48:20;;;;;;;7.50;5.47;;;;;;;;;;4979127;28;20038;-70
2023/09/14 12:50:46;;;;;;;8.80;6.00;;;;;;;;;;4980988;28;20078;-70
2023/09/14 12:53:14;;;;;;;7.80;5.50;;;;;;;;;;4977849;28;20165;-71
2023/09/14 12:55:44;;;;;;;7.65;4.97;;;;;;;;;;4979144;28;20046;-71
2023/09/14 12:58:10;;;;;;;8.93;5.25;;;;;;;;;;4978967;28;20054;-70
2023/09/14 13:00:37;;;;;;;6.75;5.15;;;;;;;;;;4980038;28;20039;-70
2023/09/14 13:03:09;;;;;;;8.00;4.88;;;;;;;;;;4979455;28;20060;-71
2023/09/14 13:05:35;;;;;;;5.40;4.78;;;;;;;;;;4978993;28;20133;-71
2023/09/14 13:08:02;;;;;;;6.47;4.55;;;;;;;;;;4979275;28;20093;-73
2023/09/14 13:10:29;;;;;;;5.72;4.45;;;;;;;;;;4979740;28;20100;-70
2023/09/14 13:13:06;;;;;;;6.00;4.78;;;;;;;;;;4994934;28;20140;-70
2023/09/14 13:15:32;;;;;;;7.05;5.65;;;;;;;;;;4978497;28;20499;-70
2023/09/14 13:18:03;;;;;;;8.88;5.18;;;;;;;;;;4980272;28;20049;-70
2023/09/14 13:20:33;;;;;;;6.15;4.47;;;;;;;;;;4995415;28;20535;-69
2023/09/14 13:23:04;;;;;;;5.95;4.38;;;;;;;;;;4980600;28;20038;-70
2023/09/14 13:25:30;;;;;;;5.13;4.07;;;;;;;;;;4979741;28;20046;-70
2023/09/14 13:27:59;;;;;;;5.75;3.47;;;;;;;;;;4980790;28;20049;-70
2023/09/14 13:30:25;;;;;;;6.55;3.67;;;;;;;;;;4978662;28;20194;-71
2023/09/14 13:32:55;;;;;;;4.57;3.75;;;;;;;;;;4979823;28;20097;-70
2023/09/14 13:35:21;;;;;;;5.80;4.90;;;;;;;;;;4977301;28;20042;-70
2023/09/14 13:37:49;;;;;;;8.48;5.38;;;;;;;;;;4978601;28;20050;-70
2023/09/14 13:42:43;;;;;;;7.28;5.50;;;;;;;;;;4979787;28;20057;-71
2023/09/14 13:45:09;;;;;;;9.02;6.03;;;;;;;;;;4979374;28;20050;-70
2023/09/14 13:47:35;;;;;;;10.02;6.30;;;;;;;;;;4977768;28;20169;-70
2023/09/14 13:50:01;;;;;;;11.02;6.28;;;;;;;;;;4980715;28;20057;-71
2023/09/14 13:52:26;;;;;;;6.60;5.15;;;;;;;;;;4979880;28;20046;-70
2023/09/14 13:54:51;;;;;;;6.85;4.90;;;;;;;;;;4981079;28;20097;-70
2023/09/14 13:57:18;;;;;;;6.25;4.40;;;;;;;;;;4983140;28;20041;-70
2023/09/14 13:59:49;;;;;;;6.20;4.63;;;;;;;;;;4982857;28;20050;-70
2023/09/14 14:02:17;;;;;;;7.70;5.18;;;;;;;;;;4980666;28;20479;-70
2023/09/14 14:04:44;;;;;;;8.50;5.10;;;;;;;;;;4980704;28;20054;-70
2023/09/14 14:07:13;;;;;;;6.78;5.38;;;;;;;;;;4978162;28;20054;-71
2023/09/14 14:09:40;;;;;;;7.13;5.30;;;;;;;;;;4977952;28;20065;-70
2023/09/14 14:12:06;;;;;;;7.82;5.95;;;;;;;;;;4978962;28;20061;-75
2023/09/14 14:14:32;;;;;;;8.40;6.45;;;;;;;;;;4979399;28;20178;-70
2023/09/14 14:16:58;;;;;;;8.50;6.55;;;;;;;;;;4979997;28;20086;-70
2023/09/14 14:19:23;;;;;;;8.32;6.30;;;;;;;;;;4977388;28;20116;-70
2023/09/14 14:21:49;;;;;;;11.77;6.50;;;;;;;;;;4978163;28;20050;-70
2023/09/14 14:24:15;;;;;;;7.43;5.07;;;;;;;;;;4978502;28;20565;-70
2023/09/14 14:26:41;;;;;;;9.10;6.18;;;;;;;;;;4980370;28;20043;-70
2023/09/14 14:29:06;;;;;;;6.75;5.32;;;;;;;;;;4979535;28;20436;-70
2023/09/14 14:31:32;;;;;;;8.95;5.05;;;;;;;;;;4978648;28;20153;-70
2023/09/14 14:33:57;;;;;;;8.90;5.00;;;;;;;;;;4980081;28;20587;-70